sensor_id;sensor_type;location;lat;lon;timestamp;temperature;humidity
22544;DHT22;11438;52.044;8.716;2023-03-04T00:01:01;8.20;94.60
22544;DHT22;11438;52.044;8.716;2023-03-04T00:03:27;8.20;94.60
22544;DHT22;11438;52.044;8.716;2023-03-04T00:05:52;8.20;94.60
22544;DHT22;11438;52.044;8.716;2023-03-04T00:08:17;8.20;94.60
22544;DHT22;11438;52.044;8.716;2023-03-04T00:10:43;8.20;94.60
22544;DHT22;11438;52.044;8.716;2023-03-04T00:13:09;8.20;94.60
22544;DHT22;11438;52.044;8.716;2023-03-04T00:15:34;8.20;94.60
22544;DHT22;11438;52.044;8.716;2023-03-04T00:18:00;8.20;94.60
22544;DHT22;11438;52.044;8.716;2023-03-04T00:20:25;8.20;94.60
22544;DHT22;11438;52.044;8.716;2023-03-04T00:22:51;8.30;94.70
22544;DHT22;11438;52.044;8.716;2023-03-04T00:25:17;8.20;94.60
22544;DHT22;11438;52.044;8.716;2023-03-04T00:27:42;8.20;94.60
22544;DHT22;11438;52.044;8.716;2023-03-04T00:30:08;8.20;94.60
22544;DHT22;11438;52.044;8.716;2023-03-04T00:32:34;8.30;94.60
22544;DHT22;11438;52.044;8.716;2023-03-04T00:34:59;8.30;94.60
22544;DHT22;11438;52.044;8.716;2023-03-04T00:37:25;8.30;94.70
22544;DHT22;11438;52.044;8.716;2023-03-04T00:39:50;8.30;94.70
22544;DHT22;11438;52.044;8.716;2023-03-04T00:42:16;8.30;94.60
22544;DHT22;11438;52.044;8.716;2023-03-04T00:44:41;8.30;94.60
22544;DHT22;11438;52.044;8.716;2023-03-04T00:47:07;8.30;94.60
22544;DHT22;11438;52.044;8.716;2023-03-04T00:49:32;8.30;94.60
22544;DHT22;11438;52.044;8.716;2023-03-04T00:51:58;8.30;94.50
22544;DHT22;11438;52.044;8.716;2023-03-04T00:54:23;8.30;94.50
22544;DHT22;11438;52.044;8.716;2023-03-04T00:56:49;8.30;94.40
22544;DHT22;11438;52.044;8.716;2023-03-04T00:59:14;8.30;94.40
22544;DHT22;11438;52.044;8.716;2023-03-04T01:01:40;8.30;94.40
22544;DHT22;11438;52.044;8.716;2023-03-04T01:04:05;8.30;94.50
22544;DHT22;11438;52.044;8.716;2023-03-04T01:06:31;8.30;94.40
22544;DHT22;11438;52.044;8.716;2023-03-04T01:08:56;8.30;94.30
22544;DHT22;11438;52.044;8.716;2023-03-04T01:11:22;8.20;94.10
22544;DHT22;11438;52.044;8.716;2023-03-04T01:13:47;8.20;94.10
22544;DHT22;11438;52.044;8.716;2023-03-04T01:16:13;8.20;94.10
22544;DHT22;11438;52.044;8.716;2023-03-04T01:18:38;8.20;94.20
22544;DHT22;11438;52.044;8.716;2023-03-04T01:21:04;8.20;94.30
22544;DHT22;11438;52.044;8.716;2023-03-04T01:23:30;8.20;94.30
22544;DHT22;11438;52.044;8.716;2023-03-04T01:25:55;8.20;94.30
22544;DHT22;11438;52.044;8.716;2023-03-04T01:28:21;8.20;94.30
22544;DHT22;11438;52.044;8.716;2023-03-04T01:30:46;8.20;94.40
22544;DHT22;11438;52.044;8.716;2023-03-04T01:33:12;8.20;94.40
22544;DHT22;11438;52.044;8.716;2023-03-04T01:35:38;8.20;94.50
22544;DHT22;11438;52.044;8.716;2023-03-04T01:38:03;8.20;94.60
22544;DHT22;11438;52.044;8.716;2023-03-04T01:40:30;8.20;94.60
22544;DHT22;11438;52.044;8.716;2023-03-04T01:42:55;8.20;94.60
22544;DHT22;11438;52.044;8.716;2023-03-04T01:45:21;8.20;94.60
22544;DHT22;11438;52.044;8.716;2023-03-04T01:47:47;8.20;94.60
22544;DHT22;11438;52.044;8.716;2023-03-04T01:50:33;8.20;94.60
22544;DHT22;11438;52.044;8.716;2023-03-04T01:53:01;8.20;94.60
22544;DHT22;11438;52.044;8.716;2023-03-04T01:55:28;8.20;94.50
22544;DHT22;11438;52.044;8.716;2023-03-04T01:57:53;8.20;94.50
22544;DHT22;11438;52.044;8.716;2023-03-04T02:00:31;8.20;94.60
22544;DHT22;11438;52.044;8.716;2023-03-04T02:03:00;8.20;94.60
22544;DHT22;11438;52.044;8.716;2023-03-04T02:05:27;8.20;94.60
22544;DHT22;11438;52.044;8.716;2023-03-04T02:07:55;8.20;94.60
22544;DHT22;11438;52.044;8.716;2023-03-04T02:10:21;8.20;94.60
22544;DHT22;11438;52.044;8.716;2023-03-04T02:12:47;8.30;94.60
22544;DHT22;11438;52.044;8.716;2023-03-04T02:15:13;8.30;94.70
22544;DHT22;11438;52.044;8.716;2023-03-04T02:17:38;8.20;94.60
22544;DHT22;11438;52.044;8.716;2023-03-04T02:22:39;8.20;94.60
22544;DHT22;11438;52.044;8.716;2023-03-04T02:25:10;8.30;94.70
22544;DHT22;11438;52.044;8.716;2023-03-04T02:27:38;8.30;94.70
22544;DHT22;11438;52.044;8.716;2023-03-04T02:30:04;8.30;94.70
22544;DHT22;11438;52.044;8.716;2023-03-04T02:32:30;8.30;94.70
22544;DHT22;11438;52.044;8.716;2023-03-04T02:34:55;8.30;94.70
22544;DHT22;11438;52.044;8.716;2023-03-04T02:37:21;8.30;94.70
22544;DHT22;11438;52.044;8.716;2023-03-04T02:39:47;8.30;94.60
22544;DHT22;11438;52.044;8.716;2023-03-04T02:42:14;8.30;94.60
22544;DHT22;11438;52.044;8.716;2023-03-04T02:44:43;8.30;94.60
22544;DHT22;11438;52.044;8.716;2023-03-04T02:47:11;8.30;94.60
22544;DHT22;11438;52.044;8.716;2023-03-04T02:49:38;8.30;94.60
22544;DHT22;11438;52.044;8.716;2023-03-04T02:52:07;8.30;94.60
22544;DHT22;11438;52.044;8.716;2023-03-04T02:54:33;8.30;94.60
22544;DHT22;11438;52.044;8.716;2023-03-04T02:57:01;8.30;94.60
22544;DHT22;11438;52.044;8.716;2023-03-04T02:59:27;8.30;94.70
22544;DHT22;11438;52.044;8.716;2023-03-04T03:01:53;8.30;94.70
22544;DHT22;11438;52.044;8.716;2023-03-04T03:04:19;8.40;94.70
22544;DHT22;11438;52.044;8.716;2023-03-04T03:06:46;8.30;94.60
22544;DHT22;11438;52.044;8.716;2023-03-04T03:09:12;8.30;94.60
22544;DHT22;11438;52.044;8.716;2023-03-04T03:11:37;8.30;94.60
22544;DHT22;11438;52.044;8.716;2023-03-04T03:14:03;8.40;94.70
22544;DHT22;11438;52.044;8.716;2023-03-04T03:16:29;8.40;94.70
22544;DHT22;11438;52.044;8.716;2023-03-04T03:18:54;8.40;94.60
22544;DHT22;11438;52.044;8.716;2023-03-04T03:21:20;8.40;94.60
22544;DHT22;11438;52.044;8.716;2023-03-04T03:23:45;8.40;94.60
22544;DHT22;11438;52.044;8.716;2023-03-04T03:26:11;8.40;94.60
22544;DHT22;11438;52.044;8.716;2023-03-04T03:28:37;8.40;94.60
22544;DHT22;11438;52.044;8.716;2023-03-04T03:31:02;8.40;94.60
22544;DHT22;11438;52.044;8.716;2023-03-04T03:33:28;8.40;94.60
22544;DHT22;11438;52.044;8.716;2023-03-04T03:35:53;8.30;94.70
22544;DHT22;11438;52.044;8.716;2023-03-04T03:38:19;8.40;94.70
22544;DHT22;11438;52.044;8.716;2023-03-04T03:40:45;8.40;94.80
22544;DHT22;11438;52.044;8.716;2023-03-04T03:43:10;8.30;94.80
22544;DHT22;11438;52.044;8.716;2023-03-04T03:45:36;8.30;94.80
22544;DHT22;11438;52.044;8.716;2023-03-04T03:48:01;8.30;94.80
22544;DHT22;11438;52.044;8.716;2023-03-04T03:50:27;8.30;94.90
22544;DHT22;11438;52.044;8.716;2023-03-04T03:52:53;8.30;94.90
22544;DHT22;11438;52.044;8.716;2023-03-04T03:55:19;8.30;94.90
22544;DHT22;11438;52.044;8.716;2023-03-04T03:57:45;8.30;94.90
22544;DHT22;11438;52.044;8.716;2023-03-04T04:00:11;8.30;94.90
22544;DHT22;11438;52.044;8.716;2023-03-04T04:02:37;8.30;94.90
22544;DHT22;11438;52.044;8.716;2023-03-04T04:05:03;8.30;94.90
22544;DHT22;11438;52.044;8.716;2023-03-04T04:07:28;8.30;94.90
22544;DHT22;11438;52.044;8.716;2023-03-04T04:09:54;8.20;94.90
22544;DHT22;11438;52.044;8.716;2023-03-04T04:12:19;8.30;94.90
22544;DHT22;11438;52.044;8.716;2023-03-04T04:14:45;8.30;94.90
22544;DHT22;11438;52.044;8.716;2023-03-04T04:17:11;8.30;94.90
22544;DHT22;11438;52.044;8.716;2023-03-04T04:19:38;8.30;94.90
22544;DHT22;11438;52.044;8.716;2023-03-04T04:22:05;8.30;94.80
22544;DHT22;11438;52.044;8.716;2023-03-04T04:24:31;8.30;94.80
22544;DHT22;11438;52.044;8.716;2023-03-04T04:26:56;8.30;94.80
22544;DHT22;11438;52.044;8.716;2023-03-04T04:29:22;8.30;94.90
22544;DHT22;11438;52.044;8.716;2023-03-04T04:31:48;8.30;94.90
22544;DHT22;11438;52.044;8.716;2023-03-04T04:34:13;8.30;94.90
22544;DHT22;11438;52.044;8.716;2023-03-04T04:36:39;8.40;94.90
22544;DHT22;11438;52.044;8.716;2023-03-04T04:39:04;8.40;94.90
22544;DHT22;11438;52.044;8.716;2023-03-04T04:41:36;8.40;94.90
22544;DHT22;11438;52.044;8.716;2023-03-04T04:44:02;8.40;95.00
22544;DHT22;11438;52.044;8.716;2023-03-04T04:46:27;8.40;94.90
22544;DHT22;11438;52.044;8.716;2023-03-04T04:48:54;8.40;94.90
22544;DHT22;11438;52.044;8.716;2023-03-04T04:51:19;8.40;94.90
22544;DHT22;11438;52.044;8.716;2023-03-04T04:53:45;8.40;94.90
22544;DHT22;11438;52.044;8.716;2023-03-04T04:56:16;8.40;95.00
22544;DHT22;11438;52.044;8.716;2023-03-04T04:58:42;8.40;95.00
22544;DHT22;11438;52.044;8.716;2023-03-04T05:01:08;8.40;95.00
22544;DHT22;11438;52.044;8.716;2023-03-04T05:03:35;8.40;95.00
22544;DHT22;11438;52.044;8.716;2023-03-04T05:06:01;8.30;95.00
22544;DHT22;11438;52.044;8.716;2023-03-04T05:08:26;8.40;95.10
22544;DHT22;11438;52.044;8.716;2023-03-04T05:10:52;8.40;95.20
22544;DHT22;11438;52.044;8.716;2023-03-04T05:13:18;8.40;95.20
22544;DHT22;11438;52.044;8.716;2023-03-04T05:15:45;8.40;95.20
22544;DHT22;11438;52.044;8.716;2023-03-04T05:18:10;8.40;95.30
22544;DHT22;11438;52.044;8.716;2023-03-04T05:20:36;8.40;95.30
22544;DHT22;11438;52.044;8.716;2023-03-04T05:23:01;8.30;95.30
22544;DHT22;11438;52.044;8.716;2023-03-04T05:25:27;8.40;95.30
22544;DHT22;11438;52.044;8.716;2023-03-04T05:27:52;8.40;95.30
22544;DHT22;11438;52.044;8.716;2023-03-04T05:30:18;8.40;95.40
22544;DHT22;11438;52.044;8.716;2023-03-04T05:32:43;8.30;95.40
22544;DHT22;11438;52.044;8.716;2023-03-04T05:35:09;8.40;95.50
22544;DHT22;11438;52.044;8.716;2023-03-04T05:37:34;8.40;95.50
22544;DHT22;11438;52.044;8.716;2023-03-04T05:40:00;8.30;95.60
22544;DHT22;11438;52.044;8.716;2023-03-04T05:42:25;8.40;95.60
22544;DHT22;11438;52.044;8.716;2023-03-04T05:44:51;8.30;95.60
22544;DHT22;11438;52.044;8.716;2023-03-04T05:47:16;8.30;95.70
22544;DHT22;11438;52.044;8.716;2023-03-04T05:49:42;8.40;95.80
22544;DHT22;11438;52.044;8.716;2023-03-04T05:52:09;8.30;95.70
22544;DHT22;11438;52.044;8.716;2023-03-04T05:54:34;8.40;95.80
22544;DHT22;11438;52.044;8.716;2023-03-04T05:57:00;8.30;95.80
22544;DHT22;11438;52.044;8.716;2023-03-04T05:59:26;8.40;95.90
22544;DHT22;11438;52.044;8.716;2023-03-04T06:01:52;8.30;95.90
22544;DHT22;11438;52.044;8.716;2023-03-04T06:04:18;8.40;96.00
22544;DHT22;11438;52.044;8.716;2023-03-04T06:06:43;8.30;96.10
22544;DHT22;11438;52.044;8.716;2023-03-04T06:09:11;8.30;96.10
22544;DHT22;11438;52.044;8.716;2023-03-04T06:11:36;8.30;96.10
22544;DHT22;11438;52.044;8.716;2023-03-04T06:14:02;8.30;96.20
22544;DHT22;11438;52.044;8.716;2023-03-04T06:16:27;8.30;96.20
22544;DHT22;11438;52.044;8.716;2023-03-04T06:18:53;8.20;96.20
22544;DHT22;11438;52.044;8.716;2023-03-04T06:21:18;8.20;96.30
22544;DHT22;11438;52.044;8.716;2023-03-04T06:23:44;8.20;96.40
22544;DHT22;11438;52.044;8.716;2023-03-04T06:26:09;8.20;96.50
22544;DHT22;11438;52.044;8.716;2023-03-04T06:28:40;8.10;96.50
22544;DHT22;11438;52.044;8.716;2023-03-04T06:31:05;8.10;96.60
22544;DHT22;11438;52.044;8.716;2023-03-04T06:33:31;8.10;96.80
22544;DHT22;11438;52.044;8.716;2023-03-04T06:35:56;8.00;96.80
22544;DHT22;11438;52.044;8.716;2023-03-04T06:38:22;8.00;97.00
22544;DHT22;11438;52.044;8.716;2023-03-04T06:40:48;8.00;97.10
22544;DHT22;11438;52.044;8.716;2023-03-04T06:43:13;8.00;97.10
22544;DHT22;11438;52.044;8.716;2023-03-04T06:45:39;8.00;97.20
22544;DHT22;11438;52.044;8.716;2023-03-04T06:48:05;8.00;97.40
22544;DHT22;11438;52.044;8.716;2023-03-04T06:50:30;8.00;97.50
22544;DHT22;11438;52.044;8.716;2023-03-04T06:52:56;8.00;97.60
22544;DHT22;11438;52.044;8.716;2023-03-04T06:55:22;8.00;97.60
22544;DHT22;11438;52.044;8.716;2023-03-04T06:57:47;8.00;97.60
22544;DHT22;11438;52.044;8.716;2023-03-04T07:00:13;8.00;97.60
22544;DHT22;11438;52.044;8.716;2023-03-04T07:02:39;8.00;97.70
22544;DHT22;11438;52.044;8.716;2023-03-04T07:05:05;8.10;97.80
22544;DHT22;11438;52.044;8.716;2023-03-04T07:07:30;8.10;97.80
22544;DHT22;11438;52.044;8.716;2023-03-04T07:09:56;8.10;97.80
22544;DHT22;11438;52.044;8.716;2023-03-04T07:12:21;8.10;97.80
22544;DHT22;11438;52.044;8.716;2023-03-04T07:14:47;8.10;97.80
22544;DHT22;11438;52.044;8.716;2023-03-04T07:17:12;8.10;97.80
22544;DHT22;11438;52.044;8.716;2023-03-04T07:19:38;8.10;97.70
22544;DHT22;11438;52.044;8.716;2023-03-04T07:22:03;8.20;97.80
22544;DHT22;11438;52.044;8.716;2023-03-04T07:24:29;8.20;97.80
22544;DHT22;11438;52.044;8.716;2023-03-04T07:26:54;8.20;97.80
22544;DHT22;11438;52.044;8.716;2023-03-04T07:29:20;8.20;97.80
22544;DHT22;11438;52.044;8.716;2023-03-04T07:31:45;8.20;97.80
22544;DHT22;11438;52.044;8.716;2023-03-04T07:34:12;8.20;97.80
22544;DHT22;11438;52.044;8.716;2023-03-04T07:36:38;8.30;98.00
22544;DHT22;11438;52.044;8.716;2023-03-04T07:39:05;8.30;98.10
22544;DHT22;11438;52.044;8.716;2023-03-04T07:41:31;8.30;98.10
22544;DHT22;11438;52.044;8.716;2023-03-04T07:44:00;8.30;98.10
22544;DHT22;11438;52.044;8.716;2023-03-04T07:46:27;8.40;98.10
22544;DHT22;11438;52.044;8.716;2023-03-04T07:48:54;8.30;98.00
22544;DHT22;11438;52.044;8.716;2023-03-04T07:51:21;8.40;97.90
22544;DHT22;11438;52.044;8.716;2023-03-04T07:53:49;8.40;97.90
22544;DHT22;11438;52.044;8.716;2023-03-04T07:56:18;8.40;97.90
22544;DHT22;11438;52.044;8.716;2023-03-04T07:58:44;8.50;98.00
22544;DHT22;11438;52.044;8.716;2023-03-04T08:01:15;8.50;97.90
22544;DHT22;11438;52.044;8.716;2023-03-04T08:03:41;8.50;97.90
22544;DHT22;11438;52.044;8.716;2023-03-04T08:06:09;8.60;98.00
22544;DHT22;11438;52.044;8.716;2023-03-04T08:08:35;8.60;98.00
22544;DHT22;11438;52.044;8.716;2023-03-04T08:11:06;8.70;97.90
22544;DHT22;11438;52.044;8.716;2023-03-04T08:13:32;8.70;97.80
22544;DHT22;11438;52.044;8.716;2023-03-04T08:15:58;8.70;97.90
22544;DHT22;11438;52.044;8.716;2023-03-04T08:18:24;8.80;97.90
22544;DHT22;11438;52.044;8.716;2023-03-04T08:20:49;8.80;97.90
22544;DHT22;11438;52.044;8.716;2023-03-04T08:23:15;8.80;97.80
22544;DHT22;11438;52.044;8.716;2023-03-04T08:25:41;8.80;97.90
22544;DHT22;11438;52.044;8.716;2023-03-04T08:28:08;8.90;97.90
22544;DHT22;11438;52.044;8.716;2023-03-04T08:30:34;8.90;97.90
22544;DHT22;11438;52.044;8.716;2023-03-04T08:33:01;8.90;98.10
22544;DHT22;11438;52.044;8.716;2023-03-04T08:35:27;8.90;98.20
22544;DHT22;11438;52.044;8.716;2023-03-04T08:37:52;8.90;98.30
22544;DHT22;11438;52.044;8.716;2023-03-04T08:40:18;8.90;98.30
22544;DHT22;11438;52.044;8.716;2023-03-04T08:42:43;8.90;98.40
22544;DHT22;11438;52.044;8.716;2023-03-04T08:45:09;8.90;98.40
22544;DHT22;11438;52.044;8.716;2023-03-04T08:47:36;8.90;98.50
22544;DHT22;11438;52.044;8.716;2023-03-04T08:50:02;8.90;98.50
22544;DHT22;11438;52.044;8.716;2023-03-04T08:52:28;8.90;98.50
22544;DHT22;11438;52.044;8.716;2023-03-04T08:54:55;9.00;98.60
22544;DHT22;11438;52.044;8.716;2023-03-04T08:57:20;9.00;98.70
22544;DHT22;11438;52.044;8.716;2023-03-04T08:59:46;9.00;98.70
22544;DHT22;11438;52.044;8.716;2023-03-04T09:02:11;9.00;98.70
22544;DHT22;11438;52.044;8.716;2023-03-04T09:04:37;9.00;98.90
22544;DHT22;11438;52.044;8.716;2023-03-04T09:07:02;9.00;98.80
22544;DHT22;11438;52.044;8.716;2023-03-04T09:09:28;9.00;98.80
22544;DHT22;11438;52.044;8.716;2023-03-04T09:11:54;9.00;98.80
22544;DHT22;11438;52.044;8.716;2023-03-04T09:14:19;9.00;98.80
22544;DHT22;11438;52.044;8.716;2023-03-04T09:16:45;9.10;98.70
22544;DHT22;11438;52.044;8.716;2023-03-04T09:19:10;9.10;98.70
22544;DHT22;11438;52.044;8.716;2023-03-04T09:21:35;9.10;98.70
22544;DHT22;11438;52.044;8.716;2023-03-04T09:24:01;9.10;98.80
22544;DHT22;11438;52.044;8.716;2023-03-04T09:26:28;9.20;98.80
22544;DHT22;11438;52.044;8.716;2023-03-04T09:28:56;9.10;98.80
22544;DHT22;11438;52.044;8.716;2023-03-04T09:31:23;9.20;98.90
22544;DHT22;11438;52.044;8.716;2023-03-04T09:33:49;9.20;98.90
22544;DHT22;11438;52.044;8.716;2023-03-04T09:36:16;9.20;99.00
22544;DHT22;11438;52.044;8.716;2023-03-04T09:38:41;9.20;99.00
22544;DHT22;11438;52.044;8.716;2023-03-04T09:41:11;9.20;99.10
22544;DHT22;11438;52.044;8.716;2023-03-04T09:43:40;9.20;99.10
22544;DHT22;11438;52.044;8.716;2023-03-04T09:46:25;9.20;99.20
22544;DHT22;11438;52.044;8.716;2023-03-04T09:48:54;9.10;99.20
22544;DHT22;11438;52.044;8.716;2023-03-04T09:51:43;9.10;99.20
22544;DHT22;11438;52.044;8.716;2023-03-04T09:54:22;9.10;99.30
22544;DHT22;11438;52.044;8.716;2023-03-04T09:56:58;9.10;99.30
22544;DHT22;11438;52.044;8.716;2023-03-04T09:59:34;9.10;99.40
22544;DHT22;11438;52.044;8.716;2023-03-04T10:02:33;9.10;99.40
22544;DHT22;11438;52.044;8.716;2023-03-04T10:05:01;9.10;99.40
22544;DHT22;11438;52.044;8.716;2023-03-04T10:07:32;9.10;99.40
22544;DHT22;11438;52.044;8.716;2023-03-04T10:12:31;9.20;99.40
22544;DHT22;11438;52.044;8.716;2023-03-04T10:15:06;9.20;99.30
22544;DHT22;11438;52.044;8.716;2023-03-04T10:17:35;9.30;99.40
22544;DHT22;11438;52.044;8.716;2023-03-04T10:20:11;9.30;99.50
22544;DHT22;11438;52.044;8.716;2023-03-04T10:22:55;9.30;99.50
22544;DHT22;11438;52.044;8.716;2023-03-04T10:25:25;9.40;99.60
22544;DHT22;11438;52.044;8.716;2023-03-04T10:30:38;9.50;99.60
22544;DHT22;11438;52.044;8.716;2023-03-04T10:33:16;9.60;99.60
22544;DHT22;11438;52.044;8.716;2023-03-04T10:35:49;9.60;99.30
22544;DHT22;11438;52.044;8.716;2023-03-04T10:38:17;9.70;99.20
22544;DHT22;11438;52.044;8.716;2023-03-04T10:40:43;9.70;99.50
22544;DHT22;11438;52.044;8.716;2023-03-04T10:43:15;9.80;99.10
22544;DHT22;11438;52.044;8.716;2023-03-04T10:45:40;9.80;99.10
22544;DHT22;11438;52.044;8.716;2023-03-04T10:48:17;9.80;99.10
22544;DHT22;11438;52.044;8.716;2023-03-04T10:50:43;9.80;99.20
22544;DHT22;11438;52.044;8.716;2023-03-04T10:53:24;9.80;99.30
22544;DHT22;11438;52.044;8.716;2023-03-04T10:55:52;9.80;99.40
22544;DHT22;11438;52.044;8.716;2023-03-04T10:58:19;9.80;99.40
22544;DHT22;11438;52.044;8.716;2023-03-04T11:01:02;9.80;99.50
22544;DHT22;11438;52.044;8.716;2023-03-04T11:03:29;9.80;99.70
22544;DHT22;11438;52.044;8.716;2023-03-04T11:06:18;9.80;99.70
22544;DHT22;11438;52.044;8.716;2023-03-04T11:08:44;9.80;99.90
22544;DHT22;11438;52.044;8.716;2023-03-04T11:11:37;9.90;99.90
22544;DHT22;11438;52.044;8.716;2023-03-04T11:14:30;9.90;99.90
22544;DHT22;11438;52.044;8.716;2023-03-04T11:17:01;10.00;99.90
22544;DHT22;11438;52.044;8.716;2023-03-04T11:19:40;10.10;99.70
22544;DHT22;11438;52.044;8.716;2023-03-04T11:22:09;10.10;99.30
22544;DHT22;11438;52.044;8.716;2023-03-04T11:24:37;10.20;99.10
22544;DHT22;11438;52.044;8.716;2023-03-04T11:28:09;10.20;98.80
22544;DHT22;11438;52.044;8.716;2023-03-04T11:33:13;10.30;98.60
22544;DHT22;11438;52.044;8.716;2023-03-04T11:35:58;10.40;98.40
22544;DHT22;11438;52.044;8.716;2023-03-04T11:38:32;10.40;98.10
22544;DHT22;11438;52.044;8.716;2023-03-04T11:41:07;10.40;97.70
22544;DHT22;11438;52.044;8.716;2023-03-04T11:43:39;10.40;97.20
22544;DHT22;11438;52.044;8.716;2023-03-04T11:48:51;10.50;97.00
22544;DHT22;11438;52.044;8.716;2023-03-04T11:51:37;10.40;97.00
22544;DHT22;11438;52.044;8.716;2023-03-04T11:54:31;10.40;97.00
22544;DHT22;11438;52.044;8.716;2023-03-04T11:57:05;10.40;96.70
22544;DHT22;11438;52.044;8.716;2023-03-04T11:59:55;10.40;96.60
22544;DHT22;11438;52.044;8.716;2023-03-04T12:05:45;10.50;96.20
22544;DHT22;11438;52.044;8.716;2023-03-04T12:08:25;10.50;95.90
22544;DHT22;11438;52.044;8.716;2023-03-04T12:11:22;10.50;95.90
22544;DHT22;11438;52.044;8.716;2023-03-04T12:16:59;10.50;95.90
22544;DHT22;11438;52.044;8.716;2023-03-04T12:19:43;10.50;95.90
22544;DHT22;11438;52.044;8.716;2023-03-04T12:22:24;10.50;96.00
22544;DHT22;11438;52.044;8.716;2023-03-04T12:25:16;10.50;96.00
22544;DHT22;11438;52.044;8.716;2023-03-04T12:28:09;10.50;95.90
22544;DHT22;11438;52.044;8.716;2023-03-04T12:36:56;10.60;96.00
22544;DHT22;11438;52.044;8.716;2023-03-04T12:39:39;10.60;96.00
22544;DHT22;11438;52.044;8.716;2023-03-04T12:42:34;10.70;96.00
22544;DHT22;11438;52.044;8.716;2023-03-04T12:45:20;10.70;96.10
22544;DHT22;11438;52.044;8.716;2023-03-04T12:56:49;10.70;96.60
22544;DHT22;11438;52.044;8.716;2023-03-04T12:59:18;10.80;96.30
22544;DHT22;11438;52.044;8.716;2023-03-04T13:05:07;10.70;96.10
22544;DHT22;11438;52.044;8.716;2023-03-04T13:08:04;10.60;96.00
22544;DHT22;11438;52.044;8.716;2023-03-04T13:10:32;10.60;96.10
22544;DHT22;11438;52.044;8.716;2023-03-04T13:12:59;10.50;96.10
22544;DHT22;11438;52.044;8.716;2023-03-04T13:15:34;10.50;96.20
22544;DHT22;11438;52.044;8.716;2023-03-04T13:18:31;10.40;96.20
22544;DHT22;11438;52.044;8.716;2023-03-04T13:23:38;10.30;96.50
22544;DHT22;11438;52.044;8.716;2023-03-04T13:29:07;10.30;96.80
22544;DHT22;11438;52.044;8.716;2023-03-04T13:31:57;10.30;96.50
22544;DHT22;11438;52.044;8.716;2023-03-04T13:34:51;10.30;96.40
22544;DHT22;11438;52.044;8.716;2023-03-04T13:37:34;10.30;96.10
22544;DHT22;11438;52.044;8.716;2023-03-04T13:42:44;10.30;95.50
22544;DHT22;11438;52.044;8.716;2023-03-04T13:45:30;10.30;95.40
22544;DHT22;11438;52.044;8.716;2023-03-04T13:47:56;10.30;95.50
22544;DHT22;11438;52.044;8.716;2023-03-04T13:50:39;10.30;95.70
22544;DHT22;11438;52.044;8.716;2023-03-04T13:53:29;10.30;95.60
22544;DHT22;11438;52.044;8.716;2023-03-04T13:56:18;10.30;95.40
22544;DHT22;11438;52.044;8.716;2023-03-04T13:58:44;10.30;95.40
22544;DHT22;11438;52.044;8.716;2023-03-04T14:01:26;10.30;95.20
22544;DHT22;11438;52.044;8.716;2023-03-04T14:03:53;10.30;95.10
22544;DHT22;11438;52.044;8.716;2023-03-04T14:06:25;10.30;95.20
22544;DHT22;11438;52.044;8.716;2023-03-04T14:08:52;10.20;95.20
22544;DHT22;11438;52.044;8.716;2023-03-04T14:11:23;10.20;95.40
22544;DHT22;11438;52.044;8.716;2023-03-04T14:13:49;10.20;95.30
22544;DHT22;11438;52.044;8.716;2023-03-04T14:16:20;10.10;95.20
22544;DHT22;11438;52.044;8.716;2023-03-04T14:18:56;10.10;95.10
22544;DHT22;11438;52.044;8.716;2023-03-04T14:21:21;10.00;95.10
22544;DHT22;11438;52.044;8.716;2023-03-04T14:24:02;10.00;95.20
22544;DHT22;11438;52.044;8.716;2023-03-04T14:26:28;10.00;95.30
22544;DHT22;11438;52.044;8.716;2023-03-04T14:28:55;10.00;95.10
22544;DHT22;11438;52.044;8.716;2023-03-04T14:31:25;10.00;94.90
22544;DHT22;11438;52.044;8.716;2023-03-04T14:33:55;10.00;95.10
22544;DHT22;11438;52.044;8.716;2023-03-04T14:36:27;10.00;95.10
22544;DHT22;11438;52.044;8.716;2023-03-04T14:38:56;10.10;95.20
22544;DHT22;11438;52.044;8.716;2023-03-04T14:41:34;10.10;95.10
22544;DHT22;11438;52.044;8.716;2023-03-04T14:46:41;10.10;94.60
22544;DHT22;11438;52.044;8.716;2023-03-04T14:49:12;10.20;94.40
22544;DHT22;11438;52.044;8.716;2023-03-04T14:51:46;10.20;94.30
22544;DHT22;11438;52.044;8.716;2023-03-04T14:54:35;10.20;94.30
22544;DHT22;11438;52.044;8.716;2023-03-04T14:57:23;10.20;94.10
22544;DHT22;11438;52.044;8.716;2023-03-04T14:59:51;10.20;94.00
22544;DHT22;11438;52.044;8.716;2023-03-04T15:02:23;10.30;93.70
22544;DHT22;11438;52.044;8.716;2023-03-04T15:04:54;10.30;93.70
22544;DHT22;11438;52.044;8.716;2023-03-04T15:07:30;10.30;93.20
22544;DHT22;11438;52.044;8.716;2023-03-04T15:09:57;10.30;93.10
22544;DHT22;11438;52.044;8.716;2023-03-04T15:12:29;10.30;93.10
22544;DHT22;11438;52.044;8.716;2023-03-04T15:14:58;10.30;93.30
22544;DHT22;11438;52.044;8.716;2023-03-04T15:17:32;10.30;93.10
22544;DHT22;11438;52.044;8.716;2023-03-04T15:22:31;10.20;93.30
22544;DHT22;11438;52.044;8.716;2023-03-04T15:24:57;10.20;93.60
22544;DHT22;11438;52.044;8.716;2023-03-04T15:27:24;10.20;93.60
22544;DHT22;11438;52.044;8.716;2023-03-04T15:29:51;10.20;93.60
22544;DHT22;11438;52.044;8.716;2023-03-04T15:32:23;10.10;93.50
22544;DHT22;11438;52.044;8.716;2023-03-04T15:34:49;10.20;93.50
22544;DHT22;11438;52.044;8.716;2023-03-04T15:37:21;10.10;94.00
22544;DHT22;11438;52.044;8.716;2023-03-04T15:39:48;10.10;94.50
22544;DHT22;11438;52.044;8.716;2023-03-04T15:42:14;10.10;94.50
22544;DHT22;11438;52.044;8.716;2023-03-04T15:44:40;10.00;94.40
22544;DHT22;11438;52.044;8.716;2023-03-04T15:47:07;10.00;94.50
22544;DHT22;11438;52.044;8.716;2023-03-04T15:49:34;9.90;94.60
22544;DHT22;11438;52.044;8.716;2023-03-04T15:52:02;9.90;94.40
22544;DHT22;11438;52.044;8.716;2023-03-04T15:54:29;9.80;94.00
22544;DHT22;11438;52.044;8.716;2023-03-04T15:56:54;9.80;93.90
22544;DHT22;11438;52.044;8.716;2023-03-04T15:59:23;9.80;93.90
22544;DHT22;11438;52.044;8.716;2023-03-04T16:01:49;9.80;93.50
22544;DHT22;11438;52.044;8.716;2023-03-04T16:04:15;9.70;93.30
22544;DHT22;11438;52.044;8.716;2023-03-04T16:06:43;9.70;93.40
22544;DHT22;11438;52.044;8.716;2023-03-04T16:09:12;9.60;93.80
22544;DHT22;11438;52.044;8.716;2023-03-04T16:11:41;9.60;94.60
22544;DHT22;11438;52.044;8.716;2023-03-04T16:14:09;9.50;94.70
22544;DHT22;11438;52.044;8.716;2023-03-04T16:16:35;9.40;94.60
22544;DHT22;11438;52.044;8.716;2023-03-04T16:19:00;9.30;94.40
22544;DHT22;11438;52.044;8.716;2023-03-04T16:21:26;9.20;94.50
22544;DHT22;11438;52.044;8.716;2023-03-04T16:23:52;9.10;94.60
22544;DHT22;11438;52.044;8.716;2023-03-04T16:26:23;9.00;94.70
22544;DHT22;11438;52.044;8.716;2023-03-04T16:28:50;8.90;95.00
22544;DHT22;11438;52.044;8.716;2023-03-04T16:31:16;8.80;95.20
22544;DHT22;11438;52.044;8.716;2023-03-04T16:33:42;8.70;95.50
22544;DHT22;11438;52.044;8.716;2023-03-04T16:36:22;8.70;95.50
22544;DHT22;11438;52.044;8.716;2023-03-04T16:38:48;8.60;95.50
22544;DHT22;11438;52.044;8.716;2023-03-04T16:41:15;8.60;95.50
22544;DHT22;11438;52.044;8.716;2023-03-04T16:43:42;8.60;95.50
22544;DHT22;11438;52.044;8.716;2023-03-04T16:46:09;8.60;95.50